Haverhill, New Hampshire
Current Conditions -  °F | °C
As of 6:55 AM on Thursday 27 Nov 2014 (Local Time) from K1P1 Reporting Station
Broken Clouds Broken Clouds  
Wind Chill: 22°   Ceiling: 9500
Heat Index: 30°   Visibility: 10mi
Dew Point: 28°   Wind: 8mph
Humidity: 92%   Direction: 280°W
Pressure: 29.84"   Gusts: NA
Location:  44.03°N, 72.06°W
Report Text: K1P1 271155Z AUTO 28007KT 10SM BKN095 M01/M02 A2984 RMK AO2 7//// T10111023 10000 21011
Loading
Personal Weather Stations






























Interactive Weather Map New forecast layout! Learn more

10-Day Weather Forecast

Advertisements
Track Severe Weather on mobile